Terminal Aerodrome Forecast
Issued by NWS Glasgow, MT

Home | Current Version | Previous Version | Text Only | Print | Product List | Glossary On
Versions: 1 2 3 4 5 6 7 8 9 10 11 12 13
000
FTUS45 KGGW 190526
TAFGGW
TAF
KGGW 190526Z 1906/2006 34006KT P6SM BKN040
     FM191500 VRB04KT P6SM VCSH BKN030
     FM191800 VRB03KT P6SM OVC020
     FM200000 VRB04KT P6SM BKN035=

USA.gov is the U.S. government's official web portal to all federal, state and local government web resources and services.